createdAt,value
2023-01-25T00:00:23.132Z,103553.06
2023-01-25T00:02:53.316Z,103547.41
2023-01-25T00:05:23.621Z,103533.47
2023-01-25T00:07:54.387Z,103536.53
2023-01-25T00:10:24.668Z,103537.16
2023-01-25T00:12:57.162Z,103522.97
2023-01-25T00:15:27.407Z,103516.56
2023-01-25T00:17:57.592Z,103525.28
2023-01-25T00:20:27.846Z,103517.50
2023-01-25T00:22:57.958Z,103527.06
2023-01-25T00:25:28.169Z,103522.59
2023-01-25T00:27:58.236Z,103520.16
2023-01-25T00:30:28.408Z,103526.41
2023-01-25T00:33:28.383Z,103527.72
2023-01-25T00:36:01.065Z,103512.22
2023-01-25T00:38:35.117Z,103516.06
2023-01-25T00:41:05.517Z,103516.84
2023-01-25T00:43:35.715Z,103513.66
2023-01-25T00:46:06.028Z,103511.72
2023-01-25T00:48:36.412Z,103520.03
2023-01-25T00:51:06.660Z,103505.19
2023-01-25T00:53:36.734Z,103502.00
2023-01-25T00:56:07.198Z,103492.66
2023-01-25T00:58:37.386Z,103492.78
2023-01-25T01:01:07.609Z,103490.75
2023-01-25T01:03:38.590Z,103487.94
2023-01-25T01:06:11.936Z,103490.22
2023-01-25T01:08:42.743Z,103466.94
2023-01-25T01:11:13.666Z,103468.22
2023-01-25T01:13:43.840Z,103458.38
2023-01-25T01:16:14.314Z,103459.78
2023-01-25T01:18:46.122Z,103464.41
2023-01-25T01:21:16.289Z,103455.44
2023-01-25T01:23:46.960Z,103455.72
2023-01-25T01:26:21.900Z,103453.63
2023-01-25T01:28:52.098Z,103451.72
2023-01-25T01:31:24.495Z,103454.41
2023-01-25T01:33:56.938Z,103466.31
2023-01-25T01:36:29.228Z,103459.53
2023-01-25T01:39:00.120Z,103460.19
2023-01-25T01:41:30.392Z,103459.03
2023-01-25T01:44:00.912Z,103460.84
2023-01-25T01:46:39.461Z,103455.16
2023-01-25T01:49:19.982Z,103460.56
2023-01-25T01:52:03.766Z,103452.50
2023-01-25T01:54:35.978Z,103460.44
2023-01-25T01:57:41.766Z,103456.97
2023-01-25T02:00:30.327Z,103451.88
2023-01-25T02:03:01.505Z,103443.91
2023-01-25T02:05:59.306Z,103449.31
2023-01-25T02:08:33.851Z,103442.00
2023-01-25T02:11:05.165Z,103439.06
2023-01-25T02:13:37.532Z,103440.22
2023-01-25T02:16:15.882Z,103424.50
2023-01-25T02:18:46.222Z,103437.78
2023-01-25T02:21:16.351Z,103427.31
2023-01-25T02:23:55.988Z,103436.75
2023-01-25T02:26:26.306Z,103436.91
2023-01-25T02:29:08.838Z,103438.03
2023-01-25T02:31:39.223Z,103427.56
2023-01-25T02:34:09.530Z,103430.13
2023-01-25T02:36:39.763Z,103421.78
2023-01-25T02:39:20.605Z,103424.50
2023-01-25T02:41:50.917Z,103417.56
2023-01-25T02:44:25.870Z,103420.03
2023-01-25T02:46:56.144Z,103412.47
2023-01-25T02:49:26.315Z,103406.69
2023-01-25T02:51:57.667Z,103402.63
2023-01-25T02:54:27.847Z,103406.69
2023-01-25T02:56:58.012Z,103393.44
2023-01-25T02:59:28.159Z,103383.56
2023-01-25T03:01:58.364Z,103381.00
2023-01-25T03:04:28.467Z,103389.06
2023-01-25T03:06:58.640Z,103382.69
2023-01-25T03:09:29.330Z,103396.22
2023-01-25T03:11:59.508Z,103385.75
2023-01-25T03:14:29.672Z,103389.31
2023-01-25T03:16:59.827Z,103388.19
2023-01-25T03:19:30.211Z,103388.84
2023-01-25T03:22:00.335Z,103395.97
2023-01-25T03:24:30.703Z,103382.94
2023-01-25T03:27:14.503Z,103382.44
2023-01-25T03:29:46.226Z,103384.72
2023-01-25T03:32:16.412Z,103381.41
2023-01-25T03:34:46.591Z,103371.31
2023-01-25T03:37:16.726Z,103377.72
2023-01-25T03:39:46.901Z,103379.59
2023-01-25T03:42:17.024Z,103379.97
2023-01-25T03:44:47.102Z,103373.09
2023-01-25T03:47:17.369Z,103367.19
2023-01-25T03:49:47.661Z,103361.72
2023-01-25T03:52:17.959Z,103369.78
2023-01-25T03:54:48.042Z,103357.63
2023-01-25T03:57:18.143Z,103352.53
2023-01-25T03:59:48.330Z,103352.91
2023-01-25T04:02:18.554Z,103355.59
2023-01-25T04:04:48.685Z,103360.84
2023-01-25T04:07:18.787Z,103353.28
2023-01-25T04:09:50.362Z,103354.94
2023-01-25T04:12:20.462Z,103357.63
2023-01-25T04:14:50.648Z,103340.25
2023-01-25T04:17:21.026Z,103338.22
2023-01-25T04:19:51.248Z,103333.09
2023-01-25T04:22:21.481Z,103319.56
2023-01-25T04:24:51.555Z,103304.88
2023-01-25T04:27:21.754Z,103294.13
2023-01-25T04:29:51.810Z,103306.13
2023-01-25T04:32:22.016Z,103308.94
2023-01-25T04:34:52.240Z,103290.41
2023-01-25T04:37:22.405Z,103291.44
2023-01-25T04:39:52.578Z,103288.22
2023-01-25T04:42:22.703Z,103296.69
2023-01-25T04:44:52.952Z,103285.03
2023-01-25T04:47:23.054Z,103288.75
2023-01-25T04:49:53.218Z,103279.53
2023-01-25T04:52:23.323Z,103278.91
2023-01-25T04:54:53.448Z,103292.72
2023-01-25T04:57:23.557Z,103290.91
2023-01-25T04:59:53.701Z,103299.38
2023-01-25T05:02:24.007Z,103288.63
2023-01-25T05:04:54.100Z,103287.09
2023-01-25T05:07:24.372Z,103292.06
2023-01-25T05:09:54.437Z,103286.81
2023-01-25T05:12:24.623Z,103299.72
2023-01-25T05:14:54.700Z,103290.69
2023-01-25T05:17:24.856Z,103284.81
2023-01-25T05:19:54.936Z,103288.75
2023-01-25T05:22:25.150Z,103277.22
2023-01-25T05:24:55.278Z,103279.91
2023-01-25T05:27:25.598Z,103277.88
2023-01-25T05:29:57.045Z,103278.00
2023-01-25T05:32:27.406Z,103273.41
2023-01-25T05:34:59.308Z,103272.53
2023-01-25T05:37:30.119Z,103252.09
2023-01-25T05:40:01.254Z,103263.59
2023-01-25T05:42:31.369Z,103254.00
2023-01-25T05:45:01.466Z,103264.75
2023-01-25T05:47:31.829Z,103262.81
2023-01-25T05:50:01.892Z,103264.47
2023-01-25T05:52:32.064Z,103263.84
2023-01-25T05:55:02.133Z,103267.03
2023-01-25T05:57:32.277Z,103261.66
2023-01-25T06:00:03.925Z,103259.59
2023-01-25T06:02:34.267Z,103266.13
2023-01-25T06:05:05.272Z,103262.28
2023-01-25T06:07:36.749Z,103258.97
2023-01-25T06:10:07.877Z,103263.31
2023-01-25T06:12:39.544Z,103267.03
2023-01-25T06:15:10.573Z,103253.50
2023-01-25T06:17:42.415Z,103249.91
2023-01-25T06:20:12.923Z,103262.31
2023-01-25T06:22:43.094Z,103263.34
2023-01-25T06:25:13.270Z,103261.53
2023-01-25T06:27:43.518Z,103252.97
2023-01-25T06:30:13.813Z,103250.81
2023-01-25T06:32:43.974Z,103247.13
2023-01-25T06:35:14.163Z,103249.53
2023-01-25T06:37:44.393Z,103253.59
2023-01-25T06:40:14.770Z,103259.09
2023-01-25T06:42:45.533Z,103261.28
2023-01-25T06:45:15.863Z,103262.03
2023-01-25T06:47:48.471Z,103264.59
2023-01-25T06:50:18.759Z,103262.16
2023-01-25T06:52:55.622Z,103263.31
2023-01-25T06:55:25.838Z,103251.81
2023-01-25T06:57:58.317Z,103256.03
2023-01-25T07:00:28.526Z,103249.25
2023-01-25T07:02:58.741Z,103255.75
2023-01-25T07:05:28.869Z,103252.03
2023-01-25T07:07:59.045Z,103244.38
2023-01-25T07:10:29.209Z,103239.16
2023-01-25T07:12:59.542Z,103232.28
2023-01-25T07:15:29.910Z,103244.88
2023-01-25T07:18:14.837Z,103246.69
2023-01-25T07:20:46.006Z,103246.56
2023-01-25T07:23:16.337Z,103230.84
2023-01-25T07:25:48.389Z,103224.25
2023-01-25T07:28:18.619Z,103227.66
2023-01-25T07:30:49.735Z,103222.84
2023-01-25T07:33:23.974Z,103218.00
2023-01-25T07:35:54.144Z,103217.81
2023-01-25T07:38:24.332Z,103212.34
2023-01-25T07:40:54.687Z,103213.31
2023-01-25T07:43:25.551Z,103198.38
2023-01-25T07:46:13.231Z,103206.78
2023-01-25T07:48:48.730Z,103203.94
2023-01-25T07:51:26.793Z,103196.63
2023-01-25T07:53:56.975Z,103213.00
2023-01-25T07:56:30.599Z,103206.03
2023-01-25T07:59:05.291Z,103202.06
2023-01-25T08:01:37.274Z,103200.16
2023-01-25T08:04:07.884Z,103204.25
2023-01-25T08:06:41.717Z,103193.91
2023-01-25T08:09:20.212Z,103199.16
2023-01-25T08:11:50.486Z,103187.13
2023-01-25T08:14:20.806Z,103179.22
2023-01-25T08:16:50.940Z,103182.19
2023-01-25T08:19:22.170Z,103169.28
2023-01-25T08:21:52.662Z,103181.53
2023-01-25T08:24:24.678Z,103169.03
2023-01-25T08:26:55.632Z,103182.19
2023-01-25T08:29:28.037Z,103200.22
2023-01-25T08:31:59.109Z,103191.16
2023-01-25T08:34:31.454Z,103193.31
2023-01-25T08:37:01.928Z,103176.97
2023-01-25T08:39:32.323Z,103188.59
2023-01-25T08:42:02.494Z,103189.38
2023-01-25T08:44:32.945Z,103187.19
2023-01-25T08:47:03.050Z,103174.19
2023-01-25T08:49:34.655Z,103173.28
2023-01-25T08:52:05.071Z,103169.97
2023-01-25T08:54:35.249Z,103181.34
2023-01-25T08:57:06.987Z,103172.66
2023-01-25T08:59:37.199Z,103175.72
2023-01-25T09:02:07.379Z,103166.63
2023-01-25T09:04:37.591Z,103159.22
2023-01-25T09:07:08.589Z,103155.00
2023-01-25T09:09:38.741Z,103138.66
2023-01-25T09:12:10.252Z,103149.47
2023-01-25T09:14:40.896Z,103141.66
2023-01-25T09:17:10.993Z,103148.03
2023-01-25T09:19:42.668Z,103143.56
2023-01-25T09:22:12.771Z,103145.75
2023-01-25T09:24:43.005Z,103153.16
2023-01-25T09:27:13.127Z,103137.31
2023-01-25T09:29:49.602Z,103131.31
2023-01-25T09:32:30.597Z,103125.03
2023-01-25T09:35:00.973Z,103129.34
2023-01-25T09:37:31.111Z,103113.78
2023-01-25T09:40:01.717Z,103113.34
2023-01-25T09:42:52.705Z,103123.50
2023-01-25T09:45:22.718Z,103120.28
2023-01-25T09:48:11.472Z,103116.09
2023-01-25T09:50:53.331Z,103115.44
2023-01-25T09:53:39.258Z,103105.59
2023-01-25T09:56:33.340Z,103109.69
2023-01-25T09:59:06.830Z,103100.25
2023-01-25T10:01:55.889Z,103087.63
2023-01-25T10:04:31.104Z,103092.09
2023-01-25T10:07:21.933Z,103085.91
2023-01-25T10:10:04.390Z,103076.44
2023-01-25T10:12:38.489Z,103079.25
2023-01-25T10:15:20.351Z,103075.22
2023-01-25T10:18:03.976Z,103069.50
2023-01-25T10:20:39.801Z,103066.88
2023-01-25T10:23:32.358Z,103057.50
2023-01-25T10:26:11.435Z,103052.06
2023-01-25T10:29:10.475Z,103050.47
2023-01-25T10:31:50.760Z,103043.56
2023-01-25T10:34:34.124Z,103026.63
2023-01-25T10:37:14.787Z,103033.75
2023-01-25T10:39:52.883Z,103024.53
2023-01-25T10:42:27.824Z,103019.66
2023-01-25T10:44:58.006Z,103019.47
2023-01-25T10:47:32.058Z,103025.94
2023-01-25T10:50:03.934Z,103011.81
2023-01-25T10:52:38.015Z,103005.47
2023-01-25T10:55:14.235Z,103013.13
2023-01-25T10:57:53.892Z,103013.13
2023-01-25T11:00:37.782Z,103005.44
2023-01-25T11:03:21.253Z,102982.66
2023-01-25T11:05:55.352Z,102996.81
2023-01-25T11:08:33.434Z,102993.56
2023-01-25T11:11:28.664Z,102977.06
2023-01-25T11:13:59.420Z,102974.78
2023-01-25T11:16:31.558Z,102974.47
2023-01-25T11:19:03.212Z,102977.59
2023-01-25T11:21:34.987Z,102969.63
2023-01-25T11:24:18.200Z,102960.81
2023-01-25T11:26:48.335Z,102939.34
2023-01-25T11:29:20.820Z,102954.50
2023-01-25T11:31:54.546Z,102953.84
2023-01-25T11:34:30.524Z,102945.81
2023-01-25T11:37:18.975Z,102957.19
2023-01-25T11:40:02.798Z,102954.16
2023-01-25T11:42:36.320Z,102938.47
2023-01-25T11:45:37.557Z,102937.81
2023-01-25T11:48:15.879Z,102928.44
2023-01-25T11:50:56.961Z,102924.69
2023-01-25T11:53:47.071Z,102919.34
2023-01-25T11:56:34.256Z,102903.53
2023-01-25T11:59:16.649Z,102912.69
2023-01-25T12:02:24.288Z,102895.97
2023-01-25T12:05:20.571Z,102892.53
2023-01-25T12:08:26.694Z,102886.63
2023-01-25T12:11:24.077Z,102873.97
2023-01-25T12:14:15.211Z,102863.06
2023-01-25T12:17:00.178Z,102867.06
2023-01-25T12:19:45.113Z,102863.81
2023-01-25T12:22:41.942Z,102859.16
2023-01-25T12:25:24.298Z,102847.25
2023-01-25T12:28:28.168Z,102843.69
2023-01-25T12:31:02.382Z,102836.59
2023-01-25T12:33:42.484Z,102831.47
2023-01-25T12:36:23.995Z,102829.13
2023-01-25T12:39:07.396Z,102817.88
2023-01-25T12:41:46.396Z,102830.00
2023-01-25T12:44:39.175Z,102826.78
2023-01-25T12:47:23.770Z,102807.44
2023-01-25T12:50:09.765Z,102807.09
2023-01-25T12:52:48.095Z,102812.75
2023-01-25T12:55:19.551Z,102803.97
2023-01-25T12:58:17.145Z,102803.06
2023-01-25T13:00:59.484Z,102799.63
2023-01-25T13:03:38.601Z,102798.88
2023-01-25T13:06:25.684Z,102794.31
2023-01-25T13:09:11.519Z,102793.41
2023-01-25T13:11:47.342Z,102795.06
2023-01-25T13:14:20.705Z,102796.97
2023-01-25T13:17:08.980Z,102790.88
2023-01-25T13:19:42.452Z,102781.06
2023-01-25T13:22:14.236Z,102787.84
2023-01-25T13:25:02.972Z,102783.41
2023-01-25T13:27:36.712Z,102786.19
2023-01-25T13:30:32.591Z,102784.44
2023-01-25T13:33:09.538Z,102761.84
2023-01-25T13:35:45.158Z,102755.63
2023-01-25T13:38:18.233Z,102772.06
2023-01-25T13:41:10.819Z,102767.19
2023-01-25T13:43:43.547Z,102767.59
2023-01-25T13:46:16.975Z,102769.94
2023-01-25T13:48:54.277Z,102767.94
2023-01-25T13:51:27.223Z,102755.16
2023-01-25T13:54:00.178Z,102747.38
2023-01-25T13:56:33.827Z,102745.72
2023-01-25T13:59:04.160Z,102738.91
2023-01-25T14:01:36.229Z,102736.81
2023-01-25T14:04:06.537Z,102735.72
2023-01-25T14:06:41.556Z,102726.16
2023-01-25T14:09:17.092Z,102740.34
2023-01-25T14:11:57.882Z,102731.25
2023-01-25T14:14:35.692Z,102724.59
2023-01-25T14:17:16.866Z,102726.47
2023-01-25T14:19:51.851Z,102715.38
2023-01-25T14:22:27.574Z,102717.81
2023-01-25T14:25:25.998Z,102718.69
2023-01-25T14:27:59.589Z,102722.03
2023-01-25T14:30:36.928Z,102721.25
2023-01-25T14:33:17.270Z,102715.03
2023-01-25T14:35:55.582Z,102711.81
2023-01-25T14:38:38.615Z,102704.03
2023-01-25T14:41:27.342Z,102704.59
2023-01-25T14:44:02.407Z,102699.25
2023-01-25T14:46:34.563Z,102700.81
2023-01-25T14:49:27.067Z,102709.81
2023-01-25T14:51:59.970Z,102701.03
2023-01-25T14:54:36.472Z,102694.03
2023-01-25T14:57:08.555Z,102693.03
2023-01-25T14:59:50.614Z,102703.94
2023-01-25T15:02:41.467Z,102688.38
2023-01-25T15:05:23.771Z,102684.91
2023-01-25T15:08:13.570Z,102683.69
2023-01-25T15:10:52.281Z,102690.34
2023-01-25T15:13:26.144Z,102680.59
2023-01-25T15:16:00.670Z,102682.81
2023-01-25T15:18:53.683Z,102673.25
2023-01-25T15:21:29.093Z,102674.13
2023-01-25T15:24:05.068Z,102688.03
2023-01-25T15:26:36.408Z,102673.13
2023-01-25T15:29:20.275Z,102675.00
2023-01-25T15:31:51.569Z,102667.47
2023-01-25T15:34:26.274Z,102671.00
2023-01-25T15:36:56.810Z,102669.25
2023-01-25T15:39:33.063Z,102673.25
2023-01-25T15:42:03.516Z,102668.34
2023-01-25T15:44:33.636Z,102659.47
2023-01-25T15:47:03.842Z,102653.81
2023-01-25T15:49:37.125Z,102641.91
2023-01-25T15:52:07.369Z,102636.91
2023-01-25T15:54:37.514Z,102628.91
2023-01-25T15:57:20.951Z,102650.91
2023-01-25T15:59:51.117Z,102631.22
2023-01-25T16:02:21.867Z,102634.09
2023-01-25T16:04:53.066Z,102625.13
2023-01-25T16:07:27.559Z,102631.56
2023-01-25T16:09:57.705Z,102645.69
2023-01-25T16:12:27.831Z,102639.13
2023-01-25T16:14:58.606Z,102620.22
2023-01-25T16:17:30.707Z,102616.19
2023-01-25T16:20:00.783Z,102627.56
2023-01-25T16:22:30.984Z,102624.66
2023-01-25T16:25:01.327Z,102609.56
2023-01-25T16:27:36.035Z,102627.09
2023-01-25T16:30:07.937Z,102622.66
2023-01-25T16:32:38.329Z,102616.78
2023-01-25T16:35:12.108Z,102613.91
2023-01-25T16:37:42.302Z,102622.66
2023-01-25T16:40:36.924Z,102610.00
2023-01-25T16:43:07.096Z,102609.22
2023-01-25T16:45:37.695Z,102601.66
2023-01-25T16:48:15.827Z,102592.53
2023-01-25T16:50:46.010Z,102602.97
2023-01-25T16:53:16.106Z,102595.53
2023-01-25T16:55:46.275Z,102588.56
2023-01-25T16:58:16.484Z,102566.22
2023-01-25T17:00:46.796Z,102578.09
2023-01-25T17:03:16.953Z,102565.75
2023-01-25T17:05:47.190Z,102577.25
2023-01-25T17:08:17.381Z,102569.56
2023-01-25T17:10:47.793Z,102574.81
2023-01-25T17:13:17.918Z,102567.94
2023-01-25T17:15:48.949Z,102570.38
2023-01-25T17:18:19.043Z,102558.06
2023-01-25T17:20:57.885Z,102562.59
2023-01-25T17:23:29.149Z,102560.50
2023-01-25T17:25:59.275Z,102563.50
2023-01-25T17:28:29.554Z,102560.78
2023-01-25T17:30:59.822Z,102560.47
2023-01-25T17:33:30.183Z,102564.44
2023-01-25T17:36:03.348Z,102557.41
2023-01-25T17:38:33.647Z,102551.72
2023-01-25T17:41:09.627Z,102545.72
2023-01-25T17:43:40.666Z,102547.59
2023-01-25T17:46:12.305Z,102549.09
2023-01-25T17:48:42.724Z,102541.19
2023-01-25T17:51:12.791Z,102536.84
2023-01-25T17:53:43.079Z,102545.53
2023-01-25T17:56:13.747Z,102544.28
2023-01-25T17:58:43.941Z,102539.97
2023-01-25T18:01:19.685Z,102538.06
2023-01-25T18:03:51.740Z,102537.38
2023-01-25T18:06:31.129Z,102531.25
2023-01-25T18:09:03.666Z,102539.81
2023-01-25T18:11:36.110Z,102533.94
2023-01-25T18:14:10.245Z,102527.16
2023-01-25T18:16:41.982Z,102522.59
2023-01-25T18:19:12.190Z,102528.22
2023-01-25T18:21:43.493Z,102525.44
2023-01-25T18:24:31.676Z,102515.78
2023-01-25T18:27:20.461Z,102514.91
2023-01-25T18:30:04.174Z,102510.69
2023-01-25T18:32:34.587Z,102503.69
2023-01-25T18:35:05.584Z,102500.81
2023-01-25T18:37:44.269Z,102507.69
2023-01-25T18:40:15.734Z,102506.00
2023-01-25T18:42:46.290Z,102503.44
2023-01-25T18:45:17.177Z,102502.56
2023-01-25T18:47:47.432Z,102491.16
2023-01-25T18:50:17.763Z,102494.59
2023-01-25T18:52:47.986Z,102485.50
2023-01-25T18:55:18.189Z,102486.72
2023-01-25T18:57:48.407Z,102498.25
2023-01-25T19:00:18.645Z,102488.59
2023-01-25T19:02:49.065Z,102490.34
2023-01-25T19:05:20.185Z,102489.97
2023-01-25T19:07:50.363Z,102462.41
2023-01-25T19:10:20.606Z,102472.25
2023-01-25T19:12:50.793Z,102459.94
2023-01-25T19:15:21.040Z,102464.28
2023-01-25T19:17:51.174Z,102472.47
2023-01-25T19:20:21.369Z,102462.03
2023-01-25T19:22:54.619Z,102463.09
2023-01-25T19:25:24.797Z,102460.97
2023-01-25T19:28:06.733Z,102462.28
2023-01-25T19:30:36.938Z,102467.41
2023-01-25T19:36:00.359Z,102459.22
2023-01-25T19:38:31.681Z,102470.22
2023-01-25T19:41:16.729Z,102463.34
2023-01-25T19:43:58.613Z,102448.69
2023-01-25T19:46:33.587Z,102453.22
2023-01-25T19:49:06.939Z,102449.97
2023-01-25T19:51:41.509Z,102458.72
2023-01-25T19:54:19.612Z,102453.53
2023-01-25T19:56:50.646Z,102437.97
2023-01-25T19:59:25.151Z,102437.28
2023-01-25T20:01:55.689Z,102432.66
2023-01-25T20:04:25.957Z,102420.19
2023-01-25T20:06:56.161Z,102425.41
2023-01-25T20:09:28.234Z,102405.28
2023-01-25T20:11:58.658Z,102415.25
2023-01-25T20:14:29.016Z,102411.72
2023-01-25T20:16:59.250Z,102399.41
2023-01-25T20:19:29.590Z,102421.06
2023-01-25T20:22:00.554Z,102407.41
2023-01-25T20:24:30.884Z,102410.63
2023-01-25T20:27:04.268Z,102400.97
2023-01-25T20:29:34.758Z,102402.38
2023-01-25T20:32:05.981Z,102407.19
2023-01-25T20:34:36.394Z,102392.78
2023-01-25T20:37:06.645Z,102398.06
2023-01-25T20:39:36.878Z,102379.97
2023-01-25T20:42:07.076Z,102386.75
2023-01-25T20:44:37.205Z,102388.34
2023-01-25T20:47:07.363Z,102385.19
2023-01-25T20:49:38.453Z,102389.31
2023-01-25T20:52:13.025Z,102385.88
2023-01-25T20:54:43.240Z,102371.91
2023-01-25T20:57:13.603Z,102379.47
2023-01-25T20:59:43.816Z,102387.81
2023-01-25T21:02:14.080Z,102387.50
2023-01-25T21:04:44.279Z,102386.06
2023-01-25T21:07:14.422Z,102378.16
2023-01-25T21:09:44.657Z,102382.69
2023-01-25T21:12:15.818Z,102379.38
2023-01-25T21:14:46.121Z,102362.81
2023-01-25T21:17:16.425Z,102362.81
2023-01-25T21:19:48.198Z,102358.50
2023-01-25T21:22:18.743Z,102361.75
2023-01-25T21:24:48.936Z,102367.84
2023-01-25T21:27:18.993Z,102374.91
2023-01-25T21:29:49.081Z,102369.81
2023-01-25T21:32:19.140Z,102368.66
2023-01-25T21:34:52.682Z,102356.81
2023-01-25T21:37:23.311Z,102354.47
2023-01-25T21:39:53.470Z,102363.53
2023-01-25T21:42:23.654Z,102366.41
2023-01-25T21:45:12.723Z,102360.88
2023-01-25T21:47:42.870Z,102342.22
2023-01-25T21:50:31.588Z,102350.25
2023-01-25T21:53:01.685Z,102352.34
2023-01-25T21:55:31.816Z,102341.69
2023-01-25T21:58:01.955Z,102336.69
2023-01-25T22:00:32.382Z,102340.63
2023-01-25T22:03:03.067Z,102337.78
2023-01-25T22:05:33.269Z,102331.38
2023-01-25T22:08:03.625Z,102330.72
2023-01-25T22:10:34.035Z,102325.88
2023-01-25T22:13:04.148Z,102317.00
2023-01-25T22:15:34.401Z,102316.53
2023-01-25T22:18:04.580Z,102315.53
2023-01-25T22:20:34.752Z,102323.31
2023-01-25T22:23:04.974Z,102332.19
2023-01-25T22:25:35.142Z,102328.81
2023-01-25T22:28:07.546Z,102326.94
2023-01-25T22:30:37.716Z,102322.72
2023-01-25T22:33:07.996Z,102323.50
2023-01-25T22:35:38.219Z,102325.97
2023-01-25T22:38:08.333Z,102318.28
2023-01-25T22:40:41.496Z,102316.03
2023-01-25T22:43:11.994Z,102311.72
2023-01-25T22:45:49.879Z,102310.22
2023-01-25T22:48:20.376Z,102305.31
2023-01-25T22:50:50.573Z,102306.97
2023-01-25T22:53:20.711Z,102297.53
2023-01-25T22:55:50.785Z,102295.75
2023-01-25T22:58:20.838Z,102307.16
2023-01-25T23:00:51.003Z,102291.41
2023-01-25T23:03:21.190Z,102292.69
2023-01-25T23:06:02.402Z,102288.38
2023-01-25T23:08:35.357Z,102278.03
2023-01-25T23:11:11.226Z,102269.78
2023-01-25T23:14:02.626Z,102260.22
2023-01-25T23:16:36.567Z,102264.84
2023-01-25T23:19:06.946Z,102254.78
2023-01-25T23:21:37.206Z,102244.94
2023-01-25T23:24:08.584Z,102254.97
2023-01-25T23:26:39.121Z,102257.53
2023-01-25T23:29:12.526Z,102261.16
2023-01-25T23:31:44.115Z,102258.72
2023-01-25T23:34:14.302Z,102251.25
2023-01-25T23:36:44.379Z,102250.75
2023-01-25T23:39:14.811Z,102250.22
2023-01-25T23:41:45.006Z,102242.53
2023-01-25T23:44:15.204Z,102234.09
2023-01-25T23:46:45.384Z,102226.31
2023-01-25T23:49:15.509Z,102235.53
2023-01-25T23:51:45.734Z,102230.22
2023-01-25T23:54:15.878Z,102235.75
2023-01-25T23:56:46.107Z,102230.50
2023-01-25T23:59:16.288Z,102221.03
